sensor_id;sensor_type;location;lat;lon;timestamp;temperature;humidity
72277;SHT30;61204;49.980;8.358;2022-11-03T00:01:46;6.41;94.61
72277;SHT30;61204;49.980;8.358;2022-11-03T00:04:17;6.34;94.11
72277;SHT30;61204;49.980;8.358;2022-11-03T00:06:48;6.32;94.94
72277;SHT30;61204;49.980;8.358;2022-11-03T00:09:17;6.31;94.94
72277;SHT30;61204;49.980;8.358;2022-11-03T00:11:46;6.25;94.68
72277;SHT30;61204;49.980;8.358;2022-11-03T00:14:14;6.28;94.82
72277;SHT30;61204;49.980;8.358;2022-11-03T00:16:40;6.25;94.93
72277;SHT30;61204;49.980;8.358;2022-11-03T00:19:07;6.37;95.05
72277;SHT30;61204;49.980;8.358;2022-11-03T00:21:34;6.44;94.65
72277;SHT30;61204;49.980;8.358;2022-11-03T00:24:01;6.44;94.67
72277;SHT30;61204;49.980;8.358;2022-11-03T00:26:34;6.48;94.57
72277;SHT30;61204;49.980;8.358;2022-11-03T00:29:07;6.55;94.45
72277;SHT30;61204;49.980;8.358;2022-11-03T00:31:38;6.55;94.22
72277;SHT30;61204;49.980;8.358;2022-11-03T00:34:07;6.59;93.97
72277;SHT30;61204;49.980;8.358;2022-11-03T00:36:43;6.56;93.94
72277;SHT30;61204;49.980;8.358;2022-11-03T00:39:10;6.51;93.74
72277;SHT30;61204;49.980;8.358;2022-11-03T00:41:37;6.46;93.70
72277;SHT30;61204;49.980;8.358;2022-11-03T00:44:04;6.55;93.62
72277;SHT30;61204;49.980;8.358;2022-11-03T00:46:30;6.55;93.52
72277;SHT30;61204;49.980;8.358;2022-11-03T00:48:59;6.56;93.64
72277;SHT30;61204;49.980;8.358;2022-11-03T00:51:27;6.53;93.78
72277;SHT30;61204;49.980;8.358;2022-11-03T00:54:00;6.46;94.03
72277;SHT30;61204;49.980;8.358;2022-11-03T00:56:31;6.42;93.81
72277;SHT30;61204;49.980;8.358;2022-11-03T00:59:00;6.37;94.02
72277;SHT30;61204;49.980;8.358;2022-11-03T01:01:41;6.38;94.36
72277;SHT30;61204;49.980;8.358;2022-11-03T01:04:09;6.38;94.59
72277;SHT30;61204;49.980;8.358;2022-11-03T01:06:56;6.38;94.53
72277;SHT30;61204;49.980;8.358;2022-11-03T01:09:28;6.34;94.82
72277;SHT30;61204;49.980;8.358;2022-11-03T01:12:03;6.27;94.72
72277;SHT30;61204;49.980;8.358;2022-11-03T01:14:43;6.17;94.99
72277;SHT30;61204;49.980;8.358;2022-11-03T01:17:16;6.17;95.10
72277;SHT30;61204;49.980;8.358;2022-11-03T01:19:42;6.28;95.13
72277;SHT30;61204;49.980;8.358;2022-11-03T01:22:09;6.37;94.52
72277;SHT30;61204;49.980;8.358;2022-11-03T01:24:36;6.38;94.34
72277;SHT30;61204;49.980;8.358;2022-11-03T01:27:01;6.35;94.52
72277;SHT30;61204;49.980;8.358;2022-11-03T01:29:27;6.32;94.43
72277;SHT30;61204;49.980;8.358;2022-11-03T01:31:53;6.20;94.29
72277;SHT30;61204;49.980;8.358;2022-11-03T01:34:20;6.23;94.87
72277;SHT30;61204;49.980;8.358;2022-11-03T01:36:47;6.16;94.72
72277;SHT30;61204;49.980;8.358;2022-11-03T01:39:15;6.16;94.97
72277;SHT30;61204;49.980;8.358;2022-11-03T01:41:45;6.04;95.02
72277;SHT30;61204;49.980;8.358;2022-11-03T01:50:00;5.78;95.28
72277;SHT30;61204;49.980;8.358;2022-11-03T01:52:43;5.73;95.35
72277;SHT30;61204;49.980;8.358;2022-11-03T01:55:15;5.68;95.43
72277;SHT30;61204;49.980;8.358;2022-11-03T01:57:56;5.60;95.46
72277;SHT30;61204;49.980;8.358;2022-11-03T02:00:27;5.54;95.47
72277;SHT30;61204;49.980;8.358;2022-11-03T02:02:53;5.49;95.55
72277;SHT30;61204;49.980;8.358;2022-11-03T02:05:22;5.40;95.56
72277;SHT30;61204;49.980;8.358;2022-11-03T02:08:08;5.34;95.66
72277;SHT30;61204;49.980;8.358;2022-11-03T02:10:40;5.30;95.78
72277;SHT30;61204;49.980;8.358;2022-11-03T02:13:17;5.19;95.90
72277;SHT30;61204;49.980;8.358;2022-11-03T02:15:54;5.16;96.06
72277;SHT30;61204;49.980;8.358;2022-11-03T02:18:28;5.12;96.12
72277;SHT30;61204;49.980;8.358;2022-11-03T02:21:25;5.07;96.16
72277;SHT30;61204;49.980;8.358;2022-11-03T02:24:17;5.10;96.69
72277;SHT30;61204;49.980;8.358;2022-11-03T02:26:59;5.12;96.68
72277;SHT30;61204;49.980;8.358;2022-11-03T02:29:24;5.10;96.76
72277;SHT30;61204;49.980;8.358;2022-11-03T02:32:05;5.04;96.83
72277;SHT30;61204;49.980;8.358;2022-11-03T02:37:30;4.97;96.95
72277;SHT30;61204;49.980;8.358;2022-11-03T02:40:10;4.97;96.98
72277;SHT30;61204;49.980;8.358;2022-11-03T02:42:44;4.96;97.00
72277;SHT30;61204;49.980;8.358;2022-11-03T02:45:17;4.95;97.07
72277;SHT30;61204;49.980;8.358;2022-11-03T02:47:48;4.89;97.10
72277;SHT30;61204;49.980;8.358;2022-11-03T02:50:16;4.86;97.19
72277;SHT30;61204;49.980;8.358;2022-11-03T02:52:46;4.86;97.23
72277;SHT30;61204;49.980;8.358;2022-11-03T02:58:15;5.04;97.83
72277;SHT30;61204;49.980;8.358;2022-11-03T03:01:18;5.21;98.40
72277;SHT30;61204;49.980;8.358;2022-11-03T03:04:06;5.31;98.13
72277;SHT30;61204;49.980;8.358;2022-11-03T03:06:49;5.35;98.00
72277;SHT30;61204;49.980;8.358;2022-11-03T03:09:28;5.40;98.11
72277;SHT30;61204;49.980;8.358;2022-11-03T03:12:02;5.40;97.94
72277;SHT30;61204;49.980;8.358;2022-11-03T03:14:36;5.21;97.59
72277;SHT30;61204;49.980;8.358;2022-11-03T03:17:23;5.04;97.55
72277;SHT30;61204;49.980;8.358;2022-11-03T03:20:13;4.95;97.51
72277;SHT30;61204;49.980;8.358;2022-11-03T03:25:36;4.82;97.62
72277;SHT30;61204;49.980;8.358;2022-11-03T03:28:17;4.78;97.71
72277;SHT30;61204;49.980;8.358;2022-11-03T03:30:48;4.72;97.74
72277;SHT30;61204;49.980;8.358;2022-11-03T03:33:18;4.71;97.81
72277;SHT30;61204;49.980;8.358;2022-11-03T03:35:49;4.64;97.82
72277;SHT30;61204;49.980;8.358;2022-11-03T03:38:22;4.62;97.90
72277;SHT30;61204;49.980;8.358;2022-11-03T03:40:54;4.61;97.95
72277;SHT30;61204;49.980;8.358;2022-11-03T03:43:25;4.62;98.06
72277;SHT30;61204;49.980;8.358;2022-11-03T03:46:03;4.62;98.09
72277;SHT30;61204;49.980;8.358;2022-11-03T03:48:32;4.64;98.12
72277;SHT30;61204;49.980;8.358;2022-11-03T03:51:00;4.59;98.13
72277;SHT30;61204;49.980;8.358;2022-11-03T03:53:29;4.58;98.14
72277;SHT30;61204;49.980;8.358;2022-11-03T03:55:56;4.57;98.16
72277;SHT30;61204;49.980;8.358;2022-11-03T03:58:23;4.58;98.26
72277;SHT30;61204;49.980;8.358;2022-11-03T04:00:49;4.55;98.24
72277;SHT30;61204;49.980;8.358;2022-11-03T04:03:19;4.61;98.37
72277;SHT30;61204;49.980;8.358;2022-11-03T04:05:46;4.65;98.47
72277;SHT30;61204;49.980;8.358;2022-11-03T04:08:14;4.62;98.41
72277;SHT30;61204;49.980;8.358;2022-11-03T04:10:40;4.59;98.41
72277;SHT30;61204;49.980;8.358;2022-11-03T04:13:26;4.62;98.66
72277;SHT30;61204;49.980;8.358;2022-11-03T04:16:11;4.59;98.58
72277;SHT30;61204;49.980;8.358;2022-11-03T04:18:55;4.54;98.61
72277;SHT30;61204;49.980;8.358;2022-11-03T04:21:39;4.52;98.62
72277;SHT30;61204;49.980;8.358;2022-11-03T04:24:23;4.51;98.60
72277;SHT30;61204;49.980;8.358;2022-11-03T04:26:49;4.45;98.63
72277;SHT30;61204;49.980;8.358;2022-11-03T04:29:15;4.40;98.66
72277;SHT30;61204;49.980;8.358;2022-11-03T04:31:41;4.38;98.73
72277;SHT30;61204;49.980;8.358;2022-11-03T04:34:11;4.47;99.11
72277;SHT30;61204;49.980;8.358;2022-11-03T04:36:37;4.44;99.01
72277;SHT30;61204;49.980;8.358;2022-11-03T04:39:15;4.40;98.95
72277;SHT30;61204;49.980;8.358;2022-11-03T04:41:44;4.45;99.25
72277;SHT30;61204;49.980;8.358;2022-11-03T04:44:14;4.52;99.41
72277;SHT30;61204;49.980;8.358;2022-11-03T04:46:43;4.59;99.56
72277;SHT30;61204;49.980;8.358;2022-11-03T04:49:20;4.62;99.54
72277;SHT30;61204;49.980;8.358;2022-11-03T04:51:48;4.61;99.51
72277;SHT30;61204;49.980;8.358;2022-11-03T04:54:20;4.51;99.38
72277;SHT30;61204;49.980;8.358;2022-11-03T04:56:47;4.45;99.39
72277;SHT30;61204;49.980;8.358;2022-11-03T04:59:15;4.40;99.37
72277;SHT30;61204;49.980;8.358;2022-11-03T05:01:45;4.31;99.33
72277;SHT30;61204;49.980;8.358;2022-11-03T05:04:17;4.29;99.41
72277;SHT30;61204;49.980;8.358;2022-11-03T05:06:51;4.24;99.38
72277;SHT30;61204;49.980;8.358;2022-11-03T05:09:30;4.23;99.42
72277;SHT30;61204;49.980;8.358;2022-11-03T05:11:56;4.21;99.51
72277;SHT30;61204;49.980;8.358;2022-11-03T05:14:25;4.29;99.63
72277;SHT30;61204;49.980;8.358;2022-11-03T05:16:54;4.27;99.61
72277;SHT30;61204;49.980;8.358;2022-11-03T05:19:32;4.25;99.59
72277;SHT30;61204;49.980;8.358;2022-11-03T05:22:02;4.18;99.58
72277;SHT30;61204;49.980;8.358;2022-11-03T05:24:29;4.17;99.59
72277;SHT30;61204;49.980;8.358;2022-11-03T05:26:58;4.24;99.77
72277;SHT30;61204;49.980;8.358;2022-11-03T05:29:37;4.17;99.74
72277;SHT30;61204;49.980;8.358;2022-11-03T05:32:14;4.20;99.81
72277;SHT30;61204;49.980;8.358;2022-11-03T05:34:48;4.13;99.72
72277;SHT30;61204;49.980;8.358;2022-11-03T05:37:27;4.07;99.74
72277;SHT30;61204;49.980;8.358;2022-11-03T05:40:02;4.03;99.76
72277;SHT30;61204;49.980;8.358;2022-11-03T05:42:41;4.13;99.96
72277;SHT30;61204;49.980;8.358;2022-11-03T05:45:23;4.10;99.86
72277;SHT30;61204;49.980;8.358;2022-11-03T05:47:55;4.09;99.91
72277;SHT30;61204;49.980;8.358;2022-11-03T05:50:27;4.27;99.99
72277;SHT30;61204;49.980;8.358;2022-11-03T05:55:48;4.16;99.98
72277;SHT30;61204;49.980;8.358;2022-11-03T05:58:36;4.38;99.99
72277;SHT30;61204;49.980;8.358;2022-11-03T06:01:12;4.50;99.99
72277;SHT30;61204;49.980;8.358;2022-11-03T06:03:50;4.44;99.99
72277;SHT30;61204;49.980;8.358;2022-11-03T06:06:22;4.48;99.99
72277;SHT30;61204;49.980;8.358;2022-11-03T06:08:51;4.47;99.99
72277;SHT30;61204;49.980;8.358;2022-11-03T06:11:32;4.54;99.99
72277;SHT30;61204;49.980;8.358;2022-11-03T06:14:00;4.57;99.99
72277;SHT30;61204;49.980;8.358;2022-11-03T06:16:46;4.55;99.99
72277;SHT30;61204;49.980;8.358;2022-11-03T06:19:38;4.51;99.99
72277;SHT30;61204;49.980;8.358;2022-11-03T06:22:21;4.51;99.99
72277;SHT30;61204;49.980;8.358;2022-11-03T06:24:51;4.50;99.99
72277;SHT30;61204;49.980;8.358;2022-11-03T06:27:25;4.45;99.99
72277;SHT30;61204;49.980;8.358;2022-11-03T06:30:01;4.38;99.99
72277;SHT30;61204;49.980;8.358;2022-11-03T06:32:40;4.41;99.99
72277;SHT30;61204;49.980;8.358;2022-11-03T06:35:10;4.38;99.99
72277;SHT30;61204;49.980;8.358;2022-11-03T06:37:37;4.38;99.99
72277;SHT30;61204;49.980;8.358;2022-11-03T06:42:37;4.41;99.99
72277;SHT30;61204;49.980;8.358;2022-11-03T06:45:20;4.48;99.99
72277;SHT30;61204;49.980;8.358;2022-11-03T06:47:49;4.54;99.99
72277;SHT30;61204;49.980;8.358;2022-11-03T06:50:28;4.64;99.99
72277;SHT30;61204;49.980;8.358;2022-11-03T06:52:59;4.76;99.99
72277;SHT30;61204;49.980;8.358;2022-11-03T06:55:35;4.92;99.99
72277;SHT30;61204;49.980;8.358;2022-11-03T06:58:26;5.06;99.99
72277;SHT30;61204;49.980;8.358;2022-11-03T07:01:14;5.19;99.99
72277;SHT30;61204;49.980;8.358;2022-11-03T07:03:43;5.40;99.99
72277;SHT30;61204;49.980;8.358;2022-11-03T07:08:39;5.35;99.93
72277;SHT30;61204;49.980;8.358;2022-11-03T07:11:21;5.48;99.99
72277;SHT30;61204;49.980;8.358;2022-11-03T07:13:58;5.69;99.70
72277;SHT30;61204;49.980;8.358;2022-11-03T07:16:42;6.02;99.55
72277;SHT30;61204;49.980;8.358;2022-11-03T07:19:31;6.55;99.17
72277;SHT30;61204;49.980;8.358;2022-11-03T07:22:13;6.86;98.22
72277;SHT30;61204;49.980;8.358;2022-11-03T07:24:46;7.04;97.16
72277;SHT30;61204;49.980;8.358;2022-11-03T07:27:30;7.28;96.37
72277;SHT30;61204;49.980;8.358;2022-11-03T07:32:52;7.62;93.04
72277;SHT30;61204;49.980;8.358;2022-11-03T07:35:33;7.79;93.44
72277;SHT30;61204;49.980;8.358;2022-11-03T07:38:10;7.86;92.10
72277;SHT30;61204;49.980;8.358;2022-11-03T07:40:40;8.01;91.55
72277;SHT30;61204;49.980;8.358;2022-11-03T07:46:03;8.35;91.11
72277;SHT30;61204;49.980;8.358;2022-11-03T07:51:28;8.73;91.40
72277;SHT30;61204;49.980;8.358;2022-11-03T07:56:34;9.24;90.38
72277;SHT30;61204;49.980;8.358;2022-11-03T08:01:44;9.87;88.15
72277;SHT30;61204;49.980;8.358;2022-11-03T08:04:21;9.93;86.57
72277;SHT30;61204;49.980;8.358;2022-11-03T08:06:49;10.17;83.55
72277;SHT30;61204;49.980;8.358;2022-11-03T08:09:16;10.50;85.23
72277;SHT30;61204;49.980;8.358;2022-11-03T08:11:43;10.52;83.92
72277;SHT30;61204;49.980;8.358;2022-11-03T08:14:09;11.00;83.53
72277;SHT30;61204;49.980;8.358;2022-11-03T08:16:36;11.06;82.85
72277;SHT30;61204;49.980;8.358;2022-11-03T08:19:02;11.21;82.24
72277;SHT30;61204;49.980;8.358;2022-11-03T08:21:27;11.11;82.08
72277;SHT30;61204;49.980;8.358;2022-11-03T08:23:53;11.06;81.61
72277;SHT30;61204;49.980;8.358;2022-11-03T08:26:19;11.32;81.34
72277;SHT30;61204;49.980;8.358;2022-11-03T08:28:45;11.72;81.00
72277;SHT30;61204;49.980;8.358;2022-11-03T08:31:11;12.30;78.70
72277;SHT30;61204;49.980;8.358;2022-11-03T08:33:37;12.70;77.10
72277;SHT30;61204;49.980;8.358;2022-11-03T08:36:03;12.97;75.58
72277;SHT30;61204;49.980;8.358;2022-11-03T08:38:29;13.18;76.68
72277;SHT30;61204;49.980;8.358;2022-11-03T08:40:57;13.63;71.29
72277;SHT30;61204;49.980;8.358;2022-11-03T08:43:23;13.93;71.64
72277;SHT30;61204;49.980;8.358;2022-11-03T08:45:49;13.83;71.99
72277;SHT30;61204;49.980;8.358;2022-11-03T08:48:22;14.80;70.66
72277;SHT30;61204;49.980;8.358;2022-11-03T08:50:52;15.21;69.43
72277;SHT30;61204;49.980;8.358;2022-11-03T08:53:25;15.63;68.62
72277;SHT30;61204;49.980;8.358;2022-11-03T08:55:52;15.97;64.19
72277;SHT30;61204;49.980;8.358;2022-11-03T08:58:19;16.18;62.40
72277;SHT30;61204;49.980;8.358;2022-11-03T09:00:46;16.52;60.88
72277;SHT30;61204;49.980;8.358;2022-11-03T09:03:13;16.06;63.34
72277;SHT30;61204;49.980;8.358;2022-11-03T09:05:39;16.34;64.16
72277;SHT30;61204;49.980;8.358;2022-11-03T09:08:05;16.59;62.68
72277;SHT30;61204;49.980;8.358;2022-11-03T09:10:31;16.40;61.64
72277;SHT30;61204;49.980;8.358;2022-11-03T09:12:56;15.96;62.49
72277;SHT30;61204;49.980;8.358;2022-11-03T09:15:22;15.67;62.38
72277;SHT30;61204;49.980;8.358;2022-11-03T09:17:48;15.55;62.54
72277;SHT30;61204;49.980;8.358;2022-11-03T09:20:14;14.79;64.46
72277;SHT30;61204;49.980;8.358;2022-11-03T09:22:40;14.69;66.53
72277;SHT30;61204;49.980;8.358;2022-11-03T09:25:06;14.55;65.87
72277;SHT30;61204;49.980;8.358;2022-11-03T09:27:32;14.80;65.48
72277;SHT30;61204;49.980;8.358;2022-11-03T09:29:58;14.72;65.69
72277;SHT30;61204;49.980;8.358;2022-11-03T09:32:24;14.52;65.66
72277;SHT30;61204;49.980;8.358;2022-11-03T09:34:50;14.68;66.34
72277;SHT30;61204;49.980;8.358;2022-11-03T09:37:15;14.80;65.54
72277;SHT30;61204;49.980;8.358;2022-11-03T09:39:42;14.61;65.50
72277;SHT30;61204;49.980;8.358;2022-11-03T09:42:10;14.38;66.98
72277;SHT30;61204;49.980;8.358;2022-11-03T09:44:37;14.06;67.13
72277;SHT30;61204;49.980;8.358;2022-11-03T09:47:05;13.80;68.81
72277;SHT30;61204;49.980;8.358;2022-11-03T09:49:33;13.86;68.10
72277;SHT30;61204;49.980;8.358;2022-11-03T09:52:03;13.80;69.81
72277;SHT30;61204;49.980;8.358;2022-11-03T09:54:30;14.06;68.13
72277;SHT30;61204;49.980;8.358;2022-11-03T09:57:07;14.44;67.34
72277;SHT30;61204;49.980;8.358;2022-11-03T09:59:37;15.00;66.04
72277;SHT30;61204;49.980;8.358;2022-11-03T10:02:19;15.38;63.69
72277;SHT30;61204;49.980;8.358;2022-11-03T10:04:51;16.41;61.42
72277;SHT30;61204;49.980;8.358;2022-11-03T10:07:21;16.77;59.49
72277;SHT30;61204;49.980;8.358;2022-11-03T10:09:50;16.40;60.40
72277;SHT30;61204;49.980;8.358;2022-11-03T10:12:19;16.40;61.47
72277;SHT30;61204;49.980;8.358;2022-11-03T10:14:47;16.17;60.64
72277;SHT30;61204;49.980;8.358;2022-11-03T10:17:25;16.25;60.84
72277;SHT30;61204;49.980;8.358;2022-11-03T10:19:55;15.83;61.39
72277;SHT30;61204;49.980;8.358;2022-11-03T10:22:23;15.16;63.81
72277;SHT30;61204;49.980;8.358;2022-11-03T10:28:12;14.73;65.40
72277;SHT30;61204;49.980;8.358;2022-11-03T10:31:04;14.68;66.07
72277;SHT30;61204;49.980;8.358;2022-11-03T10:34:21;14.61;67.51
72277;SHT30;61204;49.980;8.358;2022-11-03T10:36:31;14.68;66.75
72277;SHT30;61204;49.980;8.358;2022-11-03T10:38:58;14.58;67.22
72277;SHT30;61204;49.980;8.358;2022-11-03T10:41:55;14.61;68.01
72277;SHT30;61204;49.980;8.358;2022-11-03T10:44:27;14.51;68.46
72277;SHT30;61204;49.980;8.358;2022-11-03T10:47:03;14.37;67.99
72277;SHT30;61204;49.980;8.358;2022-11-03T10:49:32;14.14;68.46
72277;SHT30;61204;49.980;8.358;2022-11-03T10:54:45;13.44;70.73
72277;SHT30;61204;49.980;8.358;2022-11-03T10:57:11;13.38;71.27
72277;SHT30;61204;49.980;8.358;2022-11-03T10:59:37;13.48;71.11
72277;SHT30;61204;49.980;8.358;2022-11-03T11:02:19;13.35;72.13
72277;SHT30;61204;49.980;8.358;2022-11-03T11:04:53;13.42;71.83
72277;SHT30;61204;49.980;8.358;2022-11-03T11:07:39;13.63;71.67
72277;SHT30;61204;49.980;8.358;2022-11-03T11:10:18;13.35;71.79
72277;SHT30;61204;49.980;8.358;2022-11-03T11:15:58;13.11;73.70
72277;SHT30;61204;49.980;8.358;2022-11-03T11:21:00;13.38;72.75
72277;SHT30;61204;49.980;8.358;2022-11-03T11:23:49;13.46;71.92
72277;SHT30;61204;49.980;8.358;2022-11-03T11:31:45;13.31;72.96
72277;SHT30;61204;49.980;8.358;2022-11-03T11:42:18;13.27;73.14
72277;SHT30;61204;49.980;8.358;2022-11-03T11:44:57;13.24;73.39
72277;SHT30;61204;49.980;8.358;2022-11-03T11:52:45;13.08;75.17
72277;SHT30;61204;49.980;8.358;2022-11-03T11:57:49;13.14;74.75
72277;SHT30;61204;49.980;8.358;2022-11-03T12:00:22;12.93;74.89
72277;SHT30;61204;49.980;8.358;2022-11-03T12:02:52;13.01;75.25
72277;SHT30;61204;49.980;8.358;2022-11-03T12:05:24;12.89;75.56
72277;SHT30;61204;49.980;8.358;2022-11-03T12:07:54;13.12;75.30
72277;SHT30;61204;49.980;8.358;2022-11-03T12:10:27;13.18;75.52
72277;SHT30;61204;49.980;8.358;2022-11-03T12:12:57;13.01;76.05
72277;SHT30;61204;49.980;8.358;2022-11-03T12:15:56;13.18;75.73
72277;SHT30;61204;49.980;8.358;2022-11-03T12:18:42;13.18;74.98
72277;SHT30;61204;49.980;8.358;2022-11-03T12:23:41;13.00;75.13
72277;SHT30;61204;49.980;8.358;2022-11-03T12:26:40;13.07;75.63
72277;SHT30;61204;49.980;8.358;2022-11-03T12:29:06;12.86;75.72
72277;SHT30;61204;49.980;8.358;2022-11-03T12:31:32;12.86;76.43
72277;SHT30;61204;49.980;8.358;2022-11-03T12:33:58;12.94;75.76
72277;SHT30;61204;49.980;8.358;2022-11-03T12:36:24;13.11;74.90
72277;SHT30;61204;49.980;8.358;2022-11-03T12:38:49;13.06;75.60
72277;SHT30;61204;49.980;8.358;2022-11-03T12:41:15;12.89;75.93
72277;SHT30;61204;49.980;8.358;2022-11-03T12:43:48;12.93;76.17
72277;SHT30;61204;49.980;8.358;2022-11-03T12:46:16;12.97;76.89
72277;SHT30;61204;49.980;8.358;2022-11-03T12:48:44;13.17;76.63
72277;SHT30;61204;49.980;8.358;2022-11-03T12:51:14;13.32;75.49
72277;SHT30;61204;49.980;8.358;2022-11-03T12:53:42;13.44;75.70
72277;SHT30;61204;49.980;8.358;2022-11-03T12:56:10;13.29;75.10
72277;SHT30;61204;49.980;8.358;2022-11-03T12:58:37;13.14;76.47
72277;SHT30;61204;49.980;8.358;2022-11-03T13:01:04;13.14;76.78
72277;SHT30;61204;49.980;8.358;2022-11-03T13:03:30;13.14;77.41
72277;SHT30;61204;49.980;8.358;2022-11-03T13:06:01;13.12;77.19
72277;SHT30;61204;49.980;8.358;2022-11-03T13:08:30;13.11;77.74
72277;SHT30;61204;49.980;8.358;2022-11-03T13:10:56;13.04;76.92
72277;SHT30;61204;49.980;8.358;2022-11-03T13:13:22;13.01;77.93
72277;SHT30;61204;49.980;8.358;2022-11-03T13:15:48;12.99;77.99
72277;SHT30;61204;49.980;8.358;2022-11-03T13:18:14;13.01;77.65
72277;SHT30;61204;49.980;8.358;2022-11-03T13:20:39;12.94;78.24
72277;SHT30;61204;49.980;8.358;2022-11-03T13:23:05;13.06;77.91
72277;SHT30;61204;49.980;8.358;2022-11-03T13:25:32;12.92;78.05
72277;SHT30;61204;49.980;8.358;2022-11-03T13:27:57;12.87;78.68
72277;SHT30;61204;49.980;8.358;2022-11-03T13:30:25;12.83;78.65
72277;SHT30;61204;49.980;8.358;2022-11-03T13:32:51;12.63;79.27
72277;SHT30;61204;49.980;8.358;2022-11-03T13:35:18;12.72;79.30
72277;SHT30;61204;49.980;8.358;2022-11-03T13:37:44;12.72;79.31
72277;SHT30;61204;49.980;8.358;2022-11-03T13:40:14;12.70;79.66
72277;SHT30;61204;49.980;8.358;2022-11-03T13:42:41;12.67;79.28
72277;SHT30;61204;49.980;8.358;2022-11-03T13:45:08;12.65;79.66
72277;SHT30;61204;49.980;8.358;2022-11-03T13:47:35;12.60;80.47
72277;SHT30;61204;49.980;8.358;2022-11-03T13:50:00;12.59;80.43
72277;SHT30;61204;49.980;8.358;2022-11-03T13:52:27;12.50;80.08
72277;SHT30;61204;49.980;8.358;2022-11-03T13:54:53;12.45;80.47
72277;SHT30;61204;49.980;8.358;2022-11-03T13:57:20;12.38;81.05
72277;SHT30;61204;49.980;8.358;2022-11-03T13:59:46;12.32;81.52
72277;SHT30;61204;49.980;8.358;2022-11-03T14:02:12;12.27;81.42
72277;SHT30;61204;49.980;8.358;2022-11-03T14:04:38;12.27;81.65
72277;SHT30;61204;49.980;8.358;2022-11-03T14:07:05;12.34;81.75
72277;SHT30;61204;49.980;8.358;2022-11-03T14:09:32;12.34;81.19
72277;SHT30;61204;49.980;8.358;2022-11-03T14:11:58;12.41;81.69
72277;SHT30;61204;49.980;8.358;2022-11-03T14:14:42;12.39;81.23
72277;SHT30;61204;49.980;8.358;2022-11-03T14:17:08;12.37;81.39
72277;SHT30;61204;49.980;8.358;2022-11-03T14:19:34;12.38;81.60
72277;SHT30;61204;49.980;8.358;2022-11-03T14:22:00;12.35;81.61
72277;SHT30;61204;49.980;8.358;2022-11-03T14:24:26;12.31;81.69
72277;SHT30;61204;49.980;8.358;2022-11-03T14:26:52;12.32;82.04
72277;SHT30;61204;49.980;8.358;2022-11-03T14:29:18;12.22;82.14
72277;SHT30;61204;49.980;8.358;2022-11-03T14:31:43;12.21;82.13
72277;SHT30;61204;49.980;8.358;2022-11-03T14:34:09;12.20;82.31
72277;SHT30;61204;49.980;8.358;2022-11-03T14:36:35;12.17;82.21
72277;SHT30;61204;49.980;8.358;2022-11-03T14:39:00;12.20;82.35
72277;SHT30;61204;49.980;8.358;2022-11-03T14:41:26;12.21;81.52
72277;SHT30;61204;49.980;8.358;2022-11-03T14:44:10;12.20;82.24
72277;SHT30;61204;49.980;8.358;2022-11-03T14:46:36;12.21;82.48
72277;SHT30;61204;49.980;8.358;2022-11-03T14:49:02;12.22;81.97
72277;SHT30;61204;49.980;8.358;2022-11-03T14:51:28;12.18;82.17
72277;SHT30;61204;49.980;8.358;2022-11-03T14:53:54;12.17;82.14
72277;SHT30;61204;49.980;8.358;2022-11-03T14:56:22;12.14;82.53
72277;SHT30;61204;49.980;8.358;2022-11-03T14:58:48;12.13;82.47
72277;SHT30;61204;49.980;8.358;2022-11-03T15:01:18;12.10;82.47
72277;SHT30;61204;49.980;8.358;2022-11-03T15:03:44;12.13;82.68
72277;SHT30;61204;49.980;8.358;2022-11-03T15:06:11;12.11;82.58
72277;SHT30;61204;49.980;8.358;2022-11-03T15:08:38;12.16;82.72
72277;SHT30;61204;49.980;8.358;2022-11-03T15:11:05;12.16;82.32
72277;SHT30;61204;49.980;8.358;2022-11-03T15:13:36;12.17;82.19
72277;SHT30;61204;49.980;8.358;2022-11-03T15:16:09;12.20;81.99
72277;SHT30;61204;49.980;8.358;2022-11-03T15:18:35;12.20;81.83
72277;SHT30;61204;49.980;8.358;2022-11-03T15:21:01;12.20;82.41
72277;SHT30;61204;49.980;8.358;2022-11-03T15:23:26;12.11;81.98
72277;SHT30;61204;49.980;8.358;2022-11-03T15:25:53;12.14;82.02
72277;SHT30;61204;49.980;8.358;2022-11-03T15:28:20;12.13;82.35
72277;SHT30;61204;49.980;8.358;2022-11-03T15:30:46;12.04;82.80
72277;SHT30;61204;49.980;8.358;2022-11-03T15:33:15;12.01;82.67
72277;SHT30;61204;49.980;8.358;2022-11-03T15:35:40;11.95;82.92
72277;SHT30;61204;49.980;8.358;2022-11-03T15:38:06;11.93;83.12
72277;SHT30;61204;49.980;8.358;2022-11-03T15:40:31;11.90;83.30
72277;SHT30;61204;49.980;8.358;2022-11-03T15:42:57;11.90;83.45
72277;SHT30;61204;49.980;8.358;2022-11-03T15:45:23;11.82;83.78
72277;SHT30;61204;49.980;8.358;2022-11-03T15:47:50;11.80;83.52
72277;SHT30;61204;49.980;8.358;2022-11-03T15:50:16;11.77;83.29
72277;SHT30;61204;49.980;8.358;2022-11-03T15:52:44;11.79;83.52
72277;SHT30;61204;49.980;8.358;2022-11-03T15:55:10;11.82;83.89
72277;SHT30;61204;49.980;8.358;2022-11-03T15:57:36;11.80;84.02
72277;SHT30;61204;49.980;8.358;2022-11-03T16:00:04;11.77;84.05
72277;SHT30;61204;49.980;8.358;2022-11-03T16:02:33;11.77;84.22
72277;SHT30;61204;49.980;8.358;2022-11-03T16:04:58;11.73;84.26
72277;SHT30;61204;49.980;8.358;2022-11-03T16:07:26;11.73;83.96
72277;SHT30;61204;49.980;8.358;2022-11-03T16:09:52;11.72;84.22
72277;SHT30;61204;49.980;8.358;2022-11-03T16:12:18;11.72;84.14
72277;SHT30;61204;49.980;8.358;2022-11-03T16:14:43;11.72;84.44
72277;SHT30;61204;49.980;8.358;2022-11-03T16:17:09;11.72;84.63
72277;SHT30;61204;49.980;8.358;2022-11-03T16:19:34;11.69;85.34
72277;SHT30;61204;49.980;8.358;2022-11-03T16:22:00;11.67;85.00
72277;SHT30;61204;49.980;8.358;2022-11-03T16:24:26;11.66;84.93
72277;SHT30;61204;49.980;8.358;2022-11-03T16:26:51;11.65;85.23
72277;SHT30;61204;49.980;8.358;2022-11-03T16:29:17;11.63;85.29
72277;SHT30;61204;49.980;8.358;2022-11-03T16:31:42;11.58;85.58
72277;SHT30;61204;49.980;8.358;2022-11-03T16:34:08;11.58;86.20
72277;SHT30;61204;49.980;8.358;2022-11-03T16:36:34;11.56;85.56
72277;SHT30;61204;49.980;8.358;2022-11-03T16:39:01;11.54;85.44
72277;SHT30;61204;49.980;8.358;2022-11-03T16:41:26;11.51;85.61
72277;SHT30;61204;49.980;8.358;2022-11-03T16:43:52;11.51;86.41
72277;SHT30;61204;49.980;8.358;2022-11-03T16:46:17;11.43;86.57
72277;SHT30;61204;49.980;8.358;2022-11-03T16:48:43;11.41;87.26
72277;SHT30;61204;49.980;8.358;2022-11-03T16:51:09;11.32;87.93
72277;SHT30;61204;49.980;8.358;2022-11-03T16:53:34;11.14;89.14
72277;SHT30;61204;49.980;8.358;2022-11-03T16:56:00;11.03;89.80
72277;SHT30;61204;49.980;8.358;2022-11-03T16:58:26;10.97;90.53
72277;SHT30;61204;49.980;8.358;2022-11-03T17:00:51;10.94;90.85
72277;SHT30;61204;49.980;8.358;2022-11-03T17:03:17;10.84;91.56
72277;SHT30;61204;49.980;8.358;2022-11-03T17:05:42;10.80;92.01
72277;SHT30;61204;49.980;8.358;2022-11-03T17:08:08;10.76;92.32
72277;SHT30;61204;49.980;8.358;2022-11-03T17:10:33;10.73;92.80
72277;SHT30;61204;49.980;8.358;2022-11-03T17:12:59;10.75;92.57